sensor_id;sensor_type;location;lat;lon;timestamp;temperature;humidity
4566;DHT22;2295;51.050;14.608;2023-11-22T00:01:10;-0.90;99.90
4566;DHT22;2295;51.050;14.608;2023-11-22T00:03:39;-0.90;99.90
4566;DHT22;2295;51.050;14.608;2023-11-22T00:06:11;-0.90;99.90
4566;DHT22;2295;51.050;14.608;2023-11-22T00:08:40;-0.90;99.90
4566;DHT22;2295;51.050;14.608;2023-11-22T00:11:09;-0.90;99.90
4566;DHT22;2295;51.050;14.608;2023-11-22T00:13:40;-1.00;99.90
4566;DHT22;2295;51.050;14.608;2023-11-22T00:16:10;-1.00;99.90
4566;DHT22;2295;51.050;14.608;2023-11-22T00:18:41;-1.00;99.90
4566;DHT22;2295;51.050;14.608;2023-11-22T00:21:28;-1.00;99.90
4566;DHT22;2295;51.050;14.608;2023-11-22T00:23:58;-1.00;99.90
4566;DHT22;2295;51.050;14.608;2023-11-22T00:26:30;-1.00;99.90
4566;DHT22;2295;51.050;14.608;2023-11-22T00:28:59;-1.00;99.90
4566;DHT22;2295;51.050;14.608;2023-11-22T00:31:42;-1.10;99.90
4566;DHT22;2295;51.050;14.608;2023-11-22T00:34:21;-1.10;99.90
4566;DHT22;2295;51.050;14.608;2023-11-22T00:36:53;-1.10;99.90
4566;DHT22;2295;51.050;14.608;2023-11-22T00:39:24;-1.10;99.90
4566;DHT22;2295;51.050;14.608;2023-11-22T00:41:53;-1.10;99.90
4566;DHT22;2295;51.050;14.608;2023-11-22T00:44:23;-1.20;99.90
4566;DHT22;2295;51.050;14.608;2023-11-22T00:46:53;-1.20;99.90
4566;DHT22;2295;51.050;14.608;2023-11-22T00:49:34;-1.20;99.90
4566;DHT22;2295;51.050;14.608;2023-11-22T00:52:11;-1.20;99.90
4566;DHT22;2295;51.050;14.608;2023-11-22T00:54:40;-1.20;99.90
4566;DHT22;2295;51.050;14.608;2023-11-22T00:57:09;-1.20;99.90
4566;DHT22;2295;51.050;14.608;2023-11-22T00:59:46;-1.20;99.90
4566;DHT22;2295;51.050;14.608;2023-11-22T01:02:25;-1.10;99.90
4566;DHT22;2295;51.050;14.608;2023-11-22T01:04:59;-1.20;99.90
4566;DHT22;2295;51.050;14.608;2023-11-22T01:07:28;-1.20;99.90
4566;DHT22;2295;51.050;14.608;2023-11-22T01:10:06;-1.20;99.90
4566;DHT22;2295;51.050;14.608;2023-11-22T01:12:34;-1.20;99.90
4566;DHT22;2295;51.050;14.608;2023-11-22T01:15:12;-1.20;99.90
4566;DHT22;2295;51.050;14.608;2023-11-22T01:17:42;-1.20;99.90
4566;DHT22;2295;51.050;14.608;2023-11-22T01:20:12;-1.20;99.90
4566;DHT22;2295;51.050;14.608;2023-11-22T01:22:41;-1.20;99.90
4566;DHT22;2295;51.050;14.608;2023-11-22T01:25:10;-1.20;99.90
4566;DHT22;2295;51.050;14.608;2023-11-22T01:27:42;-1.20;99.90
4566;DHT22;2295;51.050;14.608;2023-11-22T01:30:11;-1.20;99.90
4566;DHT22;2295;51.050;14.608;2023-11-22T01:32:54;-1.20;99.90
4566;DHT22;2295;51.050;14.608;2023-11-22T01:35:23;-1.20;99.90
4566;DHT22;2295;51.050;14.608;2023-11-22T01:37:52;-1.20;99.90
4566;DHT22;2295;51.050;14.608;2023-11-22T01:40:27;-1.30;99.90
4566;DHT22;2295;51.050;14.608;2023-11-22T01:42:55;-1.30;99.90
4566;DHT22;2295;51.050;14.608;2023-11-22T01:45:25;-1.30;99.90
4566;DHT22;2295;51.050;14.608;2023-11-22T01:47:58;-1.30;99.90
4566;DHT22;2295;51.050;14.608;2023-11-22T01:50:26;-1.30;99.90
4566;DHT22;2295;51.050;14.608;2023-11-22T01:52:58;-1.30;99.90
4566;DHT22;2295;51.050;14.608;2023-11-22T01:55:27;-1.30;99.90
4566;DHT22;2295;51.050;14.608;2023-11-22T01:57:55;-1.30;99.90
4566;DHT22;2295;51.050;14.608;2023-11-22T02:00:24;-1.30;99.90
4566;DHT22;2295;51.050;14.608;2023-11-22T02:02:55;-1.30;99.90
4566;DHT22;2295;51.050;14.608;2023-11-22T02:05:25;-1.30;99.90
4566;DHT22;2295;51.050;14.608;2023-11-22T02:07:55;-1.30;99.90
4566;DHT22;2295;51.050;14.608;2023-11-22T02:10:23;-1.30;99.90
4566;DHT22;2295;51.050;14.608;2023-11-22T02:12:52;-1.30;99.90
4566;DHT22;2295;51.050;14.608;2023-11-22T02:15:20;-1.30;99.90
4566;DHT22;2295;51.050;14.608;2023-11-22T02:17:48;-1.30;99.90
4566;DHT22;2295;51.050;14.608;2023-11-22T02:20:24;-1.30;99.90
4566;DHT22;2295;51.050;14.608;2023-11-22T02:22:53;-1.30;99.90
4566;DHT22;2295;51.050;14.608;2023-11-22T02:25:26;-1.30;99.90
4566;DHT22;2295;51.050;14.608;2023-11-22T02:27:54;-1.30;99.90
4566;DHT22;2295;51.050;14.608;2023-11-22T02:30:22;-1.30;99.90
4566;DHT22;2295;51.050;14.608;2023-11-22T02:32:52;-1.20;99.90
4566;DHT22;2295;51.050;14.608;2023-11-22T02:35:21;-1.30;99.90
4566;DHT22;2295;51.050;14.608;2023-11-22T02:37:49;-1.30;99.90
4566;DHT22;2295;51.050;14.608;2023-11-22T02:40:19;-1.30;99.90
4566;DHT22;2295;51.050;14.608;2023-11-22T02:42:51;-1.30;99.90
4566;DHT22;2295;51.050;14.608;2023-11-22T02:45:28;-1.30;99.90
4566;DHT22;2295;51.050;14.608;2023-11-22T02:47:56;-1.30;99.90
4566;DHT22;2295;51.050;14.608;2023-11-22T02:50:31;-1.30;99.90
4566;DHT22;2295;51.050;14.608;2023-11-22T02:53:01;-1.40;99.90
4566;DHT22;2295;51.050;14.608;2023-11-22T02:55:30;-1.40;99.90
4566;DHT22;2295;51.050;14.608;2023-11-22T02:58:00;-1.40;99.90
4566;DHT22;2295;51.050;14.608;2023-11-22T03:00:32;-1.40;99.90
4566;DHT22;2295;51.050;14.608;2023-11-22T03:03:02;-1.40;99.90
4566;DHT22;2295;51.050;14.608;2023-11-22T03:05:35;-1.40;99.90
4566;DHT22;2295;51.050;14.608;2023-11-22T03:08:07;-1.40;99.90
4566;DHT22;2295;51.050;14.608;2023-11-22T03:10:40;-1.40;99.90
4566;DHT22;2295;51.050;14.608;2023-11-22T03:13:10;-1.40;99.90
4566;DHT22;2295;51.050;14.608;2023-11-22T03:15:39;-1.50;99.90
4566;DHT22;2295;51.050;14.608;2023-11-22T03:18:07;-1.50;99.90
4566;DHT22;2295;51.050;14.608;2023-11-22T03:20:39;-1.50;99.90
4566;DHT22;2295;51.050;14.608;2023-11-22T03:23:09;-1.40;99.90
4566;DHT22;2295;51.050;14.608;2023-11-22T03:25:38;-1.50;99.90
4566;DHT22;2295;51.050;14.608;2023-11-22T03:28:12;-1.50;99.90
4566;DHT22;2295;51.050;14.608;2023-11-22T03:30:43;-1.50;99.90
4566;DHT22;2295;51.050;14.608;2023-11-22T03:33:11;-1.50;99.90
4566;DHT22;2295;51.050;14.608;2023-11-22T03:35:41;-1.50;99.90
4566;DHT22;2295;51.050;14.608;2023-11-22T03:38:10;-1.50;99.90
4566;DHT22;2295;51.050;14.608;2023-11-22T03:40:38;-1.50;99.90
4566;DHT22;2295;51.050;14.608;2023-11-22T03:43:07;-1.50;99.90
4566;DHT22;2295;51.050;14.608;2023-11-22T03:45:38;-1.50;99.90
4566;DHT22;2295;51.050;14.608;2023-11-22T03:48:07;-1.50;99.90
4566;DHT22;2295;51.050;14.608;2023-11-22T03:50:35;-1.50;99.90
4566;DHT22;2295;51.050;14.608;2023-11-22T03:53:04;-1.70;99.90
4566;DHT22;2295;51.050;14.608;2023-11-22T03:55:32;-1.50;99.90
4566;DHT22;2295;51.050;14.608;2023-11-22T03:58:01;-1.50;99.90
4566;DHT22;2295;51.050;14.608;2023-11-22T04:00:32;-1.50;99.90
4566;DHT22;2295;51.050;14.608;2023-11-22T04:03:02;-1.60;99.90
4566;DHT22;2295;51.050;14.608;2023-11-22T04:05:30;-1.50;99.90
4566;DHT22;2295;51.050;14.608;2023-11-22T04:07:59;-1.40;99.90
4566;DHT22;2295;51.050;14.608;2023-11-22T04:10:27;-1.40;99.90
4566;DHT22;2295;51.050;14.608;2023-11-22T04:12:55;-1.30;99.90
4566;DHT22;2295;51.050;14.608;2023-11-22T04:15:24;-1.40;99.90
4566;DHT22;2295;51.050;14.608;2023-11-22T04:17:54;-1.50;99.90
4566;DHT22;2295;51.050;14.608;2023-11-22T04:20:24;-1.50;99.90
4566;DHT22;2295;51.050;14.608;2023-11-22T04:22:53;-1.50;99.90
4566;DHT22;2295;51.050;14.608;2023-11-22T04:25:24;-1.50;99.90
4566;DHT22;2295;51.050;14.608;2023-11-22T04:27:52;-1.50;99.90
4566;DHT22;2295;51.050;14.608;2023-11-22T04:30:21;-1.50;99.90
4566;DHT22;2295;51.050;14.608;2023-11-22T04:32:49;-1.50;99.90
4566;DHT22;2295;51.050;14.608;2023-11-22T04:35:18;-1.60;99.90
4566;DHT22;2295;51.050;14.608;2023-11-22T04:37:48;-1.60;99.90
4566;DHT22;2295;51.050;14.608;2023-11-22T04:40:17;-1.60;99.90
4566;DHT22;2295;51.050;14.608;2023-11-22T04:42:45;-1.60;99.90
4566;DHT22;2295;51.050;14.608;2023-11-22T04:45:15;-1.50;99.90
4566;DHT22;2295;51.050;14.608;2023-11-22T04:47:43;-1.50;99.90
4566;DHT22;2295;51.050;14.608;2023-11-22T04:50:12;-1.50;99.90
4566;DHT22;2295;51.050;14.608;2023-11-22T04:52:40;-1.50;99.90
4566;DHT22;2295;51.050;14.608;2023-11-22T04:55:13;-1.60;99.90
4566;DHT22;2295;51.050;14.608;2023-11-22T04:57:42;-1.60;99.90
4566;DHT22;2295;51.050;14.608;2023-11-22T05:00:11;-1.60;99.90
4566;DHT22;2295;51.050;14.608;2023-11-22T05:02:40;-1.50;99.90
4566;DHT22;2295;51.050;14.608;2023-11-22T05:05:10;-1.50;99.90
4566;DHT22;2295;51.050;14.608;2023-11-22T05:07:56;-1.60;99.90
4566;DHT22;2295;51.050;14.608;2023-11-22T05:10:26;-1.60;99.90
4566;DHT22;2295;51.050;14.608;2023-11-22T05:13:14;-1.70;99.90
4566;DHT22;2295;51.050;14.608;2023-11-22T05:15:43;-1.70;99.90
4566;DHT22;2295;51.050;14.608;2023-11-22T05:18:12;-1.70;99.90
4566;DHT22;2295;51.050;14.608;2023-11-22T05:20:41;-1.70;99.90
4566;DHT22;2295;51.050;14.608;2023-11-22T05:23:17;-1.80;99.90
4566;DHT22;2295;51.050;14.608;2023-11-22T05:25:47;-1.80;99.90
4566;DHT22;2295;51.050;14.608;2023-11-22T05:28:16;-1.70;99.90
4566;DHT22;2295;51.050;14.608;2023-11-22T05:30:46;-1.80;99.90
4566;DHT22;2295;51.050;14.608;2023-11-22T05:33:15;-1.80;99.90
4566;DHT22;2295;51.050;14.608;2023-11-22T05:35:43;-1.80;99.90
4566;DHT22;2295;51.050;14.608;2023-11-22T05:38:12;-1.80;99.90
4566;DHT22;2295;51.050;14.608;2023-11-22T05:40:40;-1.90;99.90
4566;DHT22;2295;51.050;14.608;2023-11-22T05:43:14;-1.90;99.90
4566;DHT22;2295;51.050;14.608;2023-11-22T05:45:44;-1.80;99.90
4566;DHT22;2295;51.050;14.608;2023-11-22T05:48:16;-1.80;99.90
4566;DHT22;2295;51.050;14.608;2023-11-22T05:50:46;-1.80;99.90
4566;DHT22;2295;51.050;14.608;2023-11-22T05:53:14;-1.80;99.90
4566;DHT22;2295;51.050;14.608;2023-11-22T05:55:47;-1.80;99.90
4566;DHT22;2295;51.050;14.608;2023-11-22T05:58:17;-1.90;99.90
4566;DHT22;2295;51.050;14.608;2023-11-22T06:00:46;-1.80;99.90
4566;DHT22;2295;51.050;14.608;2023-11-22T06:03:17;-1.80;99.90
4566;DHT22;2295;51.050;14.608;2023-11-22T06:05:46;-1.80;99.90
4566;DHT22;2295;51.050;14.608;2023-11-22T06:08:14;-1.80;99.90
4566;DHT22;2295;51.050;14.608;2023-11-22T06:10:43;-1.90;99.90
4566;DHT22;2295;51.050;14.608;2023-11-22T06:13:11;-1.90;99.90
4566;DHT22;2295;51.050;14.608;2023-11-22T06:15:41;-1.90;99.90
4566;DHT22;2295;51.050;14.608;2023-11-22T06:18:13;-1.90;99.90
4566;DHT22;2295;51.050;14.608;2023-11-22T06:20:45;-1.90;99.90
4566;DHT22;2295;51.050;14.608;2023-11-22T06:23:14;-1.90;99.90
4566;DHT22;2295;51.050;14.608;2023-11-22T06:25:43;-1.90;99.90
4566;DHT22;2295;51.050;14.608;2023-11-22T06:28:12;-1.90;99.90
4566;DHT22;2295;51.050;14.608;2023-11-22T06:30:44;-1.90;99.90
4566;DHT22;2295;51.050;14.608;2023-11-22T06:33:13;-1.90;99.90
4566;DHT22;2295;51.050;14.608;2023-11-22T06:35:41;-1.90;99.90
4566;DHT22;2295;51.050;14.608;2023-11-22T06:38:10;-1.90;99.90
4566;DHT22;2295;51.050;14.608;2023-11-22T06:40:39;-1.90;99.90
4566;DHT22;2295;51.050;14.608;2023-11-22T06:43:07;-1.90;99.90
4566;DHT22;2295;51.050;14.608;2023-11-22T06:45:37;-1.90;99.90
4566;DHT22;2295;51.050;14.608;2023-11-22T06:48:14;-1.90;99.90
4566;DHT22;2295;51.050;14.608;2023-11-22T06:50:46;-1.90;99.90
4566;DHT22;2295;51.050;14.608;2023-11-22T06:53:14;-2.00;99.90
4566;DHT22;2295;51.050;14.608;2023-11-22T06:55:46;-1.90;99.90
4566;DHT22;2295;51.050;14.608;2023-11-22T06:58:15;-1.90;99.90
4566;DHT22;2295;51.050;14.608;2023-11-22T07:00:45;-1.90;99.90
4566;DHT22;2295;51.050;14.608;2023-11-22T07:03:15;-2.00;99.90
4566;DHT22;2295;51.050;14.608;2023-11-22T07:05:44;-1.90;99.90
4566;DHT22;2295;51.050;14.608;2023-11-22T07:08:12;-2.00;99.90
4566;DHT22;2295;51.050;14.608;2023-11-22T07:10:44;-2.00;99.90
4566;DHT22;2295;51.050;14.608;2023-11-22T07:13:24;-1.90;99.90
4566;DHT22;2295;51.050;14.608;2023-11-22T07:16:06;-2.00;99.90
4566;DHT22;2295;51.050;14.608;2023-11-22T07:18:36;-1.90;99.90
4566;DHT22;2295;51.050;14.608;2023-11-22T07:21:05;-2.00;99.90
4566;DHT22;2295;51.050;14.608;2023-11-22T07:23:34;-2.00;99.90
4566;DHT22;2295;51.050;14.608;2023-11-22T07:26:02;-2.00;99.90
4566;DHT22;2295;51.050;14.608;2023-11-22T07:28:33;-2.10;99.90
4566;DHT22;2295;51.050;14.608;2023-11-22T07:31:02;-2.10;99.90
4566;DHT22;2295;51.050;14.608;2023-11-22T07:33:37;-2.00;99.90
4566;DHT22;2295;51.050;14.608;2023-11-22T07:36:06;-2.00;99.90
4566;DHT22;2295;51.050;14.608;2023-11-22T07:38:37;-1.90;99.90
4566;DHT22;2295;51.050;14.608;2023-11-22T07:41:16;-1.90;99.90
4566;DHT22;2295;51.050;14.608;2023-11-22T07:43:44;-1.90;99.90
4566;DHT22;2295;51.050;14.608;2023-11-22T07:46:13;-1.90;99.90
4566;DHT22;2295;51.050;14.608;2023-11-22T07:48:43;-1.90;99.90
4566;DHT22;2295;51.050;14.608;2023-11-22T07:51:14;-1.90;99.90
4566;DHT22;2295;51.050;14.608;2023-11-22T07:53:43;-1.90;99.90
4566;DHT22;2295;51.050;14.608;2023-11-22T07:56:19;-1.90;99.90
4566;DHT22;2295;51.050;14.608;2023-11-22T07:58:48;-1.90;99.90
4566;DHT22;2295;51.050;14.608;2023-11-22T08:01:17;-1.90;99.90
4566;DHT22;2295;51.050;14.608;2023-11-22T08:03:47;-1.90;99.90
4566;DHT22;2295;51.050;14.608;2023-11-22T08:06:18;-1.90;99.90
4566;DHT22;2295;51.050;14.608;2023-11-22T08:09:15;-1.90;99.90
4566;DHT22;2295;51.050;14.608;2023-11-22T08:11:46;-1.90;99.90
4566;DHT22;2295;51.050;14.608;2023-11-22T08:14:15;-1.90;99.90
4566;DHT22;2295;51.050;14.608;2023-11-22T08:16:44;-1.90;99.90
4566;DHT22;2295;51.050;14.608;2023-11-22T08:19:15;-2.00;99.90
4566;DHT22;2295;51.050;14.608;2023-11-22T08:21:57;-1.90;99.90
4566;DHT22;2295;51.050;14.608;2023-11-22T08:24:26;-1.90;99.90
4566;DHT22;2295;51.050;14.608;2023-11-22T08:26:54;-1.90;99.90
4566;DHT22;2295;51.050;14.608;2023-11-22T08:29:23;-1.90;99.90
4566;DHT22;2295;51.050;14.608;2023-11-22T08:31:53;-1.90;99.90
4566;DHT22;2295;51.050;14.608;2023-11-22T08:34:26;-1.90;99.90
4566;DHT22;2295;51.050;14.608;2023-11-22T08:36:55;-1.90;99.90
4566;DHT22;2295;51.050;14.608;2023-11-22T08:39:24;-1.90;99.90
4566;DHT22;2295;51.050;14.608;2023-11-22T08:41:54;-1.90;99.90
4566;DHT22;2295;51.050;14.608;2023-11-22T08:44:22;-1.80;99.90
4566;DHT22;2295;51.050;14.608;2023-11-22T08:46:57;-1.80;99.90
4566;DHT22;2295;51.050;14.608;2023-11-22T08:49:27;-1.80;99.90
4566;DHT22;2295;51.050;14.608;2023-11-22T08:51:55;-1.80;99.90
4566;DHT22;2295;51.050;14.608;2023-11-22T08:54:24;-1.80;99.90
4566;DHT22;2295;51.050;14.608;2023-11-22T08:56:56;-1.70;99.90
4566;DHT22;2295;51.050;14.608;2023-11-22T08:59:25;-1.70;99.90
4566;DHT22;2295;51.050;14.608;2023-11-22T09:01:55;-1.70;99.90
4566;DHT22;2295;51.050;14.608;2023-11-22T09:04:23;-1.70;99.90
4566;DHT22;2295;51.050;14.608;2023-11-22T09:06:54;-1.70;99.90
4566;DHT22;2295;51.050;14.608;2023-11-22T09:09:23;-1.70;99.90
4566;DHT22;2295;51.050;14.608;2023-11-22T09:11:58;-1.80;99.90
4566;DHT22;2295;51.050;14.608;2023-11-22T09:14:26;-1.80;99.90
4566;DHT22;2295;51.050;14.608;2023-11-22T09:16:57;-1.80;99.90
4566;DHT22;2295;51.050;14.608;2023-11-22T09:19:25;-1.80;99.90
4566;DHT22;2295;51.050;14.608;2023-11-22T09:21:55;-1.80;99.90
4566;DHT22;2295;51.050;14.608;2023-11-22T09:24:23;-1.80;99.90
4566;DHT22;2295;51.050;14.608;2023-11-22T09:26:59;-1.80;99.90
4566;DHT22;2295;51.050;14.608;2023-11-22T09:29:32;-1.70;99.90
4566;DHT22;2295;51.050;14.608;2023-11-22T09:32:06;-1.80;99.90
4566;DHT22;2295;51.050;14.608;2023-11-22T09:34:35;-1.80;99.90
4566;DHT22;2295;51.050;14.608;2023-11-22T09:37:05;-1.90;99.90
4566;DHT22;2295;51.050;14.608;2023-11-22T09:39:33;-1.90;99.90
4566;DHT22;2295;51.050;14.608;2023-11-22T09:42:05;-1.80;99.90
4566;DHT22;2295;51.050;14.608;2023-11-22T09:44:33;-1.70;99.90
4566;DHT22;2295;51.050;14.608;2023-11-22T09:47:06;-1.60;99.90
4566;DHT22;2295;51.050;14.608;2023-11-22T09:49:39;-1.60;99.90
4566;DHT22;2295;51.050;14.608;2023-11-22T09:52:11;-1.60;99.90
4566;DHT22;2295;51.050;14.608;2023-11-22T09:54:44;-1.60;99.90
4566;DHT22;2295;51.050;14.608;2023-11-22T09:57:13;-1.70;99.90
4566;DHT22;2295;51.050;14.608;2023-11-22T09:59:50;-1.70;99.90
4566;DHT22;2295;51.050;14.608;2023-11-22T10:02:20;-1.60;99.90
4566;DHT22;2295;51.050;14.608;2023-11-22T10:04:56;-1.50;99.90
4566;DHT22;2295;51.050;14.608;2023-11-22T10:07:39;-1.40;99.90
4566;DHT22;2295;51.050;14.608;2023-11-22T10:10:08;-1.30;99.90
4566;DHT22;2295;51.050;14.608;2023-11-22T10:12:38;-1.30;99.90
4566;DHT22;2295;51.050;14.608;2023-11-22T10:15:19;-1.30;99.90
4566;DHT22;2295;51.050;14.608;2023-11-22T10:18:02;-1.40;99.90
4566;DHT22;2295;51.050;14.608;2023-11-22T10:20:36;-1.50;99.90
4566;DHT22;2295;51.050;14.608;2023-11-22T10:23:11;-1.60;99.90
4566;DHT22;2295;51.050;14.608;2023-11-22T10:25:44;-1.50;99.90
4566;DHT22;2295;51.050;14.608;2023-11-22T10:28:14;-1.50;99.90
4566;DHT22;2295;51.050;14.608;2023-11-22T10:30:45;-1.50;99.90
4566;DHT22;2295;51.050;14.608;2023-11-22T10:33:14;-1.50;99.90
4566;DHT22;2295;51.050;14.608;2023-11-22T10:35:43;-1.60;99.90
4566;DHT22;2295;51.050;14.608;2023-11-22T10:38:23;-1.60;99.90
4566;DHT22;2295;51.050;14.608;2023-11-22T10:40:54;-1.60;99.90
4566;DHT22;2295;51.050;14.608;2023-11-22T10:43:27;-1.60;99.90
4566;DHT22;2295;51.050;14.608;2023-11-22T10:45:59;-1.60;99.90
4566;DHT22;2295;51.050;14.608;2023-11-22T10:48:31;-1.60;99.90
4566;DHT22;2295;51.050;14.608;2023-11-22T10:51:04;-1.50;99.90
4566;DHT22;2295;51.050;14.608;2023-11-22T10:53:45;-1.50;99.90
4566;DHT22;2295;51.050;14.608;2023-11-22T10:56:20;-1.40;99.90
4566;DHT22;2295;51.050;14.608;2023-11-22T10:58:51;-1.30;99.90
4566;DHT22;2295;51.050;14.608;2023-11-22T11:01:25;-1.20;99.90
4566;DHT22;2295;51.050;14.608;2023-11-22T11:03:56;-1.30;99.90
4566;DHT22;2295;51.050;14.608;2023-11-22T11:06:31;-1.30;99.90
4566;DHT22;2295;51.050;14.608;2023-11-22T11:09:13;-1.30;99.90
4566;DHT22;2295;51.050;14.608;2023-11-22T11:11:43;-1.30;99.90
4566;DHT22;2295;51.050;14.608;2023-11-22T11:14:13;-1.20;99.90
4566;DHT22;2295;51.050;14.608;2023-11-22T11:16:42;-1.20;99.90
4566;DHT22;2295;51.050;14.608;2023-11-22T11:19:15;-1.20;99.90
4566;DHT22;2295;51.050;14.608;2023-11-22T11:21:45;-1.10;99.90
4566;DHT22;2295;51.050;14.608;2023-11-22T11:24:17;-1.00;99.90
4566;DHT22;2295;51.050;14.608;2023-11-22T11:26:48;-1.00;99.90
4566;DHT22;2295;51.050;14.608;2023-11-22T11:29:38;-1.10;99.90
4566;DHT22;2295;51.050;14.608;2023-11-22T11:32:33;-1.00;99.90
4566;DHT22;2295;51.050;14.608;2023-11-22T11:35:02;-0.80;99.90
4566;DHT22;2295;51.050;14.608;2023-11-22T11:38:00;-0.80;99.90
4566;DHT22;2295;51.050;14.608;2023-11-22T11:40:34;-0.60;99.90
4566;DHT22;2295;51.050;14.608;2023-11-22T11:43:04;-0.50;99.90
4566;DHT22;2295;51.050;14.608;2023-11-22T11:45:36;-0.40;99.90
4566;DHT22;2295;51.050;14.608;2023-11-22T11:48:07;-0.50;99.90
4566;DHT22;2295;51.050;14.608;2023-11-22T11:50:36;-0.60;99.90
4566;DHT22;2295;51.050;14.608;2023-11-22T11:56:02;-0.90;99.90
4566;DHT22;2295;51.050;14.608;2023-11-22T11:58:31;-1.00;99.90
4566;DHT22;2295;51.050;14.608;2023-11-22T12:00:59;-1.30;99.90
4566;DHT22;2295;51.050;14.608;2023-11-22T12:03:30;-1.20;99.90
4566;DHT22;2295;51.050;14.608;2023-11-22T12:06:00;-0.90;99.90
4566;DHT22;2295;51.050;14.608;2023-11-22T12:08:29;-0.70;99.90
4566;DHT22;2295;51.050;14.608;2023-11-22T12:11:05;-0.70;99.90
4566;DHT22;2295;51.050;14.608;2023-11-22T12:13:35;-0.80;99.90
4566;DHT22;2295;51.050;14.608;2023-11-22T12:16:19;-0.80;99.90
4566;DHT22;2295;51.050;14.608;2023-11-22T12:19:20;-0.90;99.90
4566;DHT22;2295;51.050;14.608;2023-11-22T12:21:49;-1.10;99.90
4566;DHT22;2295;51.050;14.608;2023-11-22T12:24:18;-1.10;99.90
4566;DHT22;2295;51.050;14.608;2023-11-22T12:26:48;-1.10;99.90
4566;DHT22;2295;51.050;14.608;2023-11-22T12:29:18;-1.10;99.90
4566;DHT22;2295;51.050;14.608;2023-11-22T12:31:56;-1.00;99.90
4566;DHT22;2295;51.050;14.608;2023-11-22T12:34:30;-1.00;99.90
4566;DHT22;2295;51.050;14.608;2023-11-22T12:37:00;-0.90;99.90
4566;DHT22;2295;51.050;14.608;2023-11-22T12:42:20;-1.10;99.90
4566;DHT22;2295;51.050;14.608;2023-11-22T12:44:55;-1.20;99.90
4566;DHT22;2295;51.050;14.608;2023-11-22T12:47:31;-1.20;99.90
4566;DHT22;2295;51.050;14.608;2023-11-22T12:50:03;-1.30;99.90
4566;DHT22;2295;51.050;14.608;2023-11-22T12:53:26;-1.10;99.90
4566;DHT22;2295;51.050;14.608;2023-11-22T12:56:25;-1.00;99.90
4566;DHT22;2295;51.050;14.608;2023-11-22T12:58:59;-0.90;99.90
4566;DHT22;2295;51.050;14.608;2023-11-22T13:01:36;-0.90;99.90
4566;DHT22;2295;51.050;14.608;2023-11-22T13:04:17;-0.90;99.90
4566;DHT22;2295;51.050;14.608;2023-11-22T13:06:46;-1.10;99.90
4566;DHT22;2295;51.050;14.608;2023-11-22T13:09:15;-1.30;99.90
4566;DHT22;2295;51.050;14.608;2023-11-22T13:11:55;-1.30;99.90
4566;DHT22;2295;51.050;14.608;2023-11-22T13:14:30;-1.30;99.90
4566;DHT22;2295;51.050;14.608;2023-11-22T13:17:02;-1.20;99.90
4566;DHT22;2295;51.050;14.608;2023-11-22T13:19:32;-1.10;99.90
4566;DHT22;2295;51.050;14.608;2023-11-22T13:22:00;-1.10;99.90
4566;DHT22;2295;51.050;14.608;2023-11-22T13:24:38;-1.20;99.90
4566;DHT22;2295;51.050;14.608;2023-11-22T13:27:09;-1.40;99.90
4566;DHT22;2295;51.050;14.608;2023-11-22T13:29:39;-1.50;99.90
4566;DHT22;2295;51.050;14.608;2023-11-22T13:32:17;-1.60;99.90
4566;DHT22;2295;51.050;14.608;2023-11-22T13:34:46;-1.60;99.90
4566;DHT22;2295;51.050;14.608;2023-11-22T13:37:17;-1.70;99.90
4566;DHT22;2295;51.050;14.608;2023-11-22T13:39:48;-1.60;99.90
4566;DHT22;2295;51.050;14.608;2023-11-22T13:42:26;-1.60;99.90
4566;DHT22;2295;51.050;14.608;2023-11-22T13:44:57;-1.60;99.90
4566;DHT22;2295;51.050;14.608;2023-11-22T13:47:25;-1.70;99.90
4566;DHT22;2295;51.050;14.608;2023-11-22T13:49:54;-1.70;99.90
4566;DHT22;2295;51.050;14.608;2023-11-22T13:52:23;-1.70;99.90
4566;DHT22;2295;51.050;14.608;2023-11-22T13:54:51;-1.70;99.90
4566;DHT22;2295;51.050;14.608;2023-11-22T13:57:23;-1.70;99.90
4566;DHT22;2295;51.050;14.608;2023-11-22T13:59:56;-1.70;99.90
4566;DHT22;2295;51.050;14.608;2023-11-22T14:02:24;-1.60;99.90
4566;DHT22;2295;51.050;14.608;2023-11-22T14:04:53;-1.60;99.90
4566;DHT22;2295;51.050;14.608;2023-11-22T14:07:21;-1.60;99.90
4566;DHT22;2295;51.050;14.608;2023-11-22T14:09:50;-1.70;99.90
4566;DHT22;2295;51.050;14.608;2023-11-22T14:12:18;-1.70;99.90
4566;DHT22;2295;51.050;14.608;2023-11-22T14:14:47;-1.70;99.90
4566;DHT22;2295;51.050;14.608;2023-11-22T14:17:46;-1.70;99.90
4566;DHT22;2295;51.050;14.608;2023-11-22T14:20:18;-1.70;99.90
4566;DHT22;2295;51.050;14.608;2023-11-22T14:22:48;-1.70;99.90
4566;DHT22;2295;51.050;14.608;2023-11-22T14:25:17;-1.60;99.90
4566;DHT22;2295;51.050;14.608;2023-11-22T14:27:52;-1.60;99.90
4566;DHT22;2295;51.050;14.608;2023-11-22T14:30:36;-1.60;99.90
4566;DHT22;2295;51.050;14.608;2023-11-22T14:33:06;-1.60;99.90
4566;DHT22;2295;51.050;14.608;2023-11-22T14:35:36;-1.60;99.90
4566;DHT22;2295;51.050;14.608;2023-11-22T14:38:13;-1.60;99.90
4566;DHT22;2295;51.050;14.608;2023-11-22T14:40:47;-1.70;99.90
4566;DHT22;2295;51.050;14.608;2023-11-22T14:43:20;-1.70;99.90
4566;DHT22;2295;51.050;14.608;2023-11-22T14:46:10;-1.80;99.90
4566;DHT22;2295;51.050;14.608;2023-11-22T14:49:01;-1.90;99.90
4566;DHT22;2295;51.050;14.608;2023-11-22T14:51:33;-1.90;99.90
4566;DHT22;2295;51.050;14.608;2023-11-22T14:54:16;-1.90;99.90
4566;DHT22;2295;51.050;14.608;2023-11-22T14:56:55;-2.00;99.90
4566;DHT22;2295;51.050;14.608;2023-11-22T14:59:29;-2.00;99.90
4566;DHT22;2295;51.050;14.608;2023-11-22T15:01:57;-2.00;99.90
4566;DHT22;2295;51.050;14.608;2023-11-22T15:04:34;-2.00;99.90
4566;DHT22;2295;51.050;14.608;2023-11-22T15:07:04;-2.00;99.90
4566;DHT22;2295;51.050;14.608;2023-11-22T15:09:33;-2.00;99.90
4566;DHT22;2295;51.050;14.608;2023-11-22T15:12:02;-2.10;99.90
4566;DHT22;2295;51.050;14.608;2023-11-22T15:14:32;-2.10;99.90
4566;DHT22;2295;51.050;14.608;2023-11-22T15:17:07;-2.10;99.90
4566;DHT22;2295;51.050;14.608;2023-11-22T15:19:39;-2.00;99.90
4566;DHT22;2295;51.050;14.608;2023-11-22T15:22:08;-2.10;99.90
4566;DHT22;2295;51.050;14.608;2023-11-22T15:24:37;-2.10;99.90
4566;DHT22;2295;51.050;14.608;2023-11-22T15:27:06;-2.10;99.90
4566;DHT22;2295;51.050;14.608;2023-11-22T15:29:34;-2.20;99.90
4566;DHT22;2295;51.050;14.608;2023-11-22T15:32:05;-2.20;99.90
4566;DHT22;2295;51.050;14.608;2023-11-22T15:34:36;-2.10;99.90
4566;DHT22;2295;51.050;14.608;2023-11-22T15:37:06;-2.10;99.90
4566;DHT22;2295;51.050;14.608;2023-11-22T15:39:38;-2.10;99.90
4566;DHT22;2295;51.050;14.608;2023-11-22T15:42:06;-2.10;99.90
4566;DHT22;2295;51.050;14.608;2023-11-22T15:44:35;-2.10;99.90
4566;DHT22;2295;51.050;14.608;2023-11-22T15:47:06;-2.10;99.90
4566;DHT22;2295;51.050;14.608;2023-11-22T15:49:43;-2.10;99.90
4566;DHT22;2295;51.050;14.608;2023-11-22T15:52:20;-2.10;99.90
4566;DHT22;2295;51.050;14.608;2023-11-22T15:54:51;-2.10;99.90
4566;DHT22;2295;51.050;14.608;2023-11-22T15:57:24;-2.10;99.90
4566;DHT22;2295;51.050;14.608;2023-11-22T15:59:56;-2.20;99.90
4566;DHT22;2295;51.050;14.608;2023-11-22T16:02:24;-2.10;99.90
4566;DHT22;2295;51.050;14.608;2023-11-22T16:04:54;-2.10;99.90
4566;DHT22;2295;51.050;14.608;2023-11-22T16:07:27;-2.10;99.90
4566;DHT22;2295;51.050;14.608;2023-11-22T16:10:12;-2.10;99.90
4566;DHT22;2295;51.050;14.608;2023-11-22T16:12:40;-2.10;99.90
4566;DHT22;2295;51.050;14.608;2023-11-22T16:15:10;-2.10;99.90
4566;DHT22;2295;51.050;14.608;2023-11-22T16:17:39;-2.10;99.90
4566;DHT22;2295;51.050;14.608;2023-11-22T16:20:11;-2.20;99.90